sensor_id;sensor_type;location;lat;lon;timestamp;P1;durP1;ratioP1;P2;durP2;ratioP2
14754;SDS011;7469;50.906;6.952;2024-03-06T00:01:47;36.53;;;26.27;;
14754;SDS011;7469;50.906;6.952;2024-03-06T00:04:15;31.47;;;24.47;;
14754;SDS011;7469;50.906;6.952;2024-03-06T00:06:45;32.50;;;24.60;;
14754;SDS011;7469;50.906;6.952;2024-03-06T00:09:13;32.93;;;24.17;;
14754;SDS011;7469;50.906;6.952;2024-03-06T00:11:41;34.00;;;24.80;;
14754;SDS011;7469;50.906;6.952;2024-03-06T00:14:09;35.50;;;24.77;;
14754;SDS011;7469;50.906;6.952;2024-03-06T00:16:39;40.57;;;26.10;;
14754;SDS011;7469;50.906;6.952;2024-03-06T00:19:08;35.60;;;24.43;;
14754;SDS011;7469;50.906;6.952;2024-03-06T00:21:36;35.43;;;25.60;;
14754;SDS011;7469;50.906;6.952;2024-03-06T00:24:04;36.07;;;25.13;;
14754;SDS011;7469;50.906;6.952;2024-03-06T00:26:33;36.33;;;26.03;;
14754;SDS011;7469;50.906;6.952;2024-03-06T00:29:01;37.33;;;25.37;;
14754;SDS011;7469;50.906;6.952;2024-03-06T00:31:29;32.60;;;24.20;;
14754;SDS011;7469;50.906;6.952;2024-03-06T00:33:57;36.50;;;25.63;;
14754;SDS011;7469;50.906;6.952;2024-03-06T00:36:26;39.77;;;26.03;;
14754;SDS011;7469;50.906;6.952;2024-03-06T00:38:54;34.93;;;24.57;;
14754;SDS011;7469;50.906;6.952;2024-03-06T00:41:22;37.93;;;24.60;;
14754;SDS011;7469;50.906;6.952;2024-03-06T00:43:50;33.90;;;25.70;;
14754;SDS011;7469;50.906;6.952;2024-03-06T00:46:18;36.90;;;26.47;;
14754;SDS011;7469;50.906;6.952;2024-03-06T00:48:46;33.23;;;24.90;;
14754;SDS011;7469;50.906;6.952;2024-03-06T00:51:14;36.03;;;26.03;;
14754;SDS011;7469;50.906;6.952;2024-03-06T00:53:44;34.10;;;25.37;;
14754;SDS011;7469;50.906;6.952;2024-03-06T00:56:12;38.73;;;25.33;;
14754;SDS011;7469;50.906;6.952;2024-03-06T00:58:40;33.70;;;24.20;;
14754;SDS011;7469;50.906;6.952;2024-03-06T01:01:08;38.27;;;25.83;;
14754;SDS011;7469;50.906;6.952;2024-03-06T01:03:37;37.30;;;25.37;;
14754;SDS011;7469;50.906;6.952;2024-03-06T01:06:05;35.90;;;25.27;;
14754;SDS011;7469;50.906;6.952;2024-03-06T01:08:33;38.07;;;24.13;;
14754;SDS011;7469;50.906;6.952;2024-03-06T01:11:02;33.37;;;25.93;;
14754;SDS011;7469;50.906;6.952;2024-03-06T01:13:31;34.57;;;24.73;;
14754;SDS011;7469;50.906;6.952;2024-03-06T01:15:58;34.77;;;25.10;;
14754;SDS011;7469;50.906;6.952;2024-03-06T01:18:26;33.17;;;23.17;;
14754;SDS011;7469;50.906;6.952;2024-03-06T01:20:54;30.13;;;22.53;;
14754;SDS011;7469;50.906;6.952;2024-03-06T01:23:22;28.57;;;20.70;;
14754;SDS011;7469;50.906;6.952;2024-03-06T01:25:50;27.67;;;21.07;;
14754;SDS011;7469;50.906;6.952;2024-03-06T01:28:19;27.53;;;20.60;;
14754;SDS011;7469;50.906;6.952;2024-03-06T01:30:47;26.73;;;20.80;;
14754;SDS011;7469;50.906;6.952;2024-03-06T01:33:15;28.03;;;21.30;;
14754;SDS011;7469;50.906;6.952;2024-03-06T01:35:43;27.17;;;19.67;;
14754;SDS011;7469;50.906;6.952;2024-03-06T01:38:11;26.10;;;19.20;;
14754;SDS011;7469;50.906;6.952;2024-03-06T01:40:42;26.77;;;20.73;;
14754;SDS011;7469;50.906;6.952;2024-03-06T01:43:22;26.73;;;21.50;;
14754;SDS011;7469;50.906;6.952;2024-03-06T01:45:52;27.27;;;20.77;;
14754;SDS011;7469;50.906;6.952;2024-03-06T01:48:21;28.57;;;21.53;;
14754;SDS011;7469;50.906;6.952;2024-03-06T01:50:52;28.73;;;20.43;;
14754;SDS011;7469;50.906;6.952;2024-03-06T01:53:22;28.17;;;20.53;;
14754;SDS011;7469;50.906;6.952;2024-03-06T01:55:51;34.13;;;21.13;;
14754;SDS011;7469;50.906;6.952;2024-03-06T01:58:20;27.93;;;20.40;;
14754;SDS011;7469;50.906;6.952;2024-03-06T02:00:50;31.90;;;20.73;;
14754;SDS011;7469;50.906;6.952;2024-03-06T02:03:19;27.63;;;19.13;;
14754;SDS011;7469;50.906;6.952;2024-03-06T02:05:47;26.13;;;19.50;;
14754;SDS011;7469;50.906;6.952;2024-03-06T02:08:16;27.70;;;20.17;;
14754;SDS011;7469;50.906;6.952;2024-03-06T02:10:44;28.90;;;19.87;;
14754;SDS011;7469;50.906;6.952;2024-03-06T02:13:14;26.43;;;19.57;;
14754;SDS011;7469;50.906;6.952;2024-03-06T02:15:43;26.70;;;18.47;;
14754;SDS011;7469;50.906;6.952;2024-03-06T02:18:12;25.17;;;18.53;;
14754;SDS011;7469;50.906;6.952;2024-03-06T02:20:41;27.37;;;19.27;;
14754;SDS011;7469;50.906;6.952;2024-03-06T02:23:09;25.57;;;18.43;;
14754;SDS011;7469;50.906;6.952;2024-03-06T02:25:37;25.77;;;19.10;;
14754;SDS011;7469;50.906;6.952;2024-03-06T02:28:05;24.80;;;18.43;;
14754;SDS011;7469;50.906;6.952;2024-03-06T02:30:33;25.80;;;18.03;;
14754;SDS011;7469;50.906;6.952;2024-03-06T02:33:04;25.20;;;18.37;;
14754;SDS011;7469;50.906;6.952;2024-03-06T02:35:33;24.10;;;17.93;;
14754;SDS011;7469;50.906;6.952;2024-03-06T02:38:03;24.23;;;17.70;;
14754;SDS011;7469;50.906;6.952;2024-03-06T02:40:32;22.87;;;16.70;;
14754;SDS011;7469;50.906;6.952;2024-03-06T02:43:00;23.63;;;17.13;;
14754;SDS011;7469;50.906;6.952;2024-03-06T02:45:28;19.93;;;14.43;;
14754;SDS011;7469;50.906;6.952;2024-03-06T02:47:56;16.00;;;12.63;;
14754;SDS011;7469;50.906;6.952;2024-03-06T02:50:24;17.03;;;12.07;;
14754;SDS011;7469;50.906;6.952;2024-03-06T02:52:52;17.87;;;10.57;;
14754;SDS011;7469;50.906;6.952;2024-03-06T02:55:22;15.20;;;11.67;;
14754;SDS011;7469;50.906;6.952;2024-03-06T02:57:50;13.10;;;9.83;;
14754;SDS011;7469;50.906;6.952;2024-03-06T03:00:18;12.40;;;9.87;;
14754;SDS011;7469;50.906;6.952;2024-03-06T03:02:47;13.57;;;9.07;;
14754;SDS011;7469;50.906;6.952;2024-03-06T03:05:15;11.73;;;8.90;;
14754;SDS011;7469;50.906;6.952;2024-03-06T03:07:43;13.57;;;8.87;;
14754;SDS011;7469;50.906;6.952;2024-03-06T03:10:11;11.53;;;9.60;;
14754;SDS011;7469;50.906;6.952;2024-03-06T03:12:41;10.13;;;8.10;;
14754;SDS011;7469;50.906;6.952;2024-03-06T03:15:09;11.03;;;8.10;;
14754;SDS011;7469;50.906;6.952;2024-03-06T03:17:37;12.67;;;8.87;;
14754;SDS011;7469;50.906;6.952;2024-03-06T03:20:05;11.20;;;8.03;;
14754;SDS011;7469;50.906;6.952;2024-03-06T03:22:37;9.57;;;8.00;;
14754;SDS011;7469;50.906;6.952;2024-03-06T03:25:07;12.50;;;9.03;;
14754;SDS011;7469;50.906;6.952;2024-03-06T03:27:36;11.27;;;8.17;;
14754;SDS011;7469;50.906;6.952;2024-03-06T03:30:06;11.43;;;8.33;;
14754;SDS011;7469;50.906;6.952;2024-03-06T03:32:36;10.80;;;8.63;;
14754;SDS011;7469;50.906;6.952;2024-03-06T03:35:04;10.60;;;7.67;;
14754;SDS011;7469;50.906;6.952;2024-03-06T03:37:33;11.97;;;7.80;;
14754;SDS011;7469;50.906;6.952;2024-03-06T03:40:01;10.97;;;9.17;;
14754;SDS011;7469;50.906;6.952;2024-03-06T03:42:30;14.30;;;9.93;;
14754;SDS011;7469;50.906;6.952;2024-03-06T03:44:58;13.47;;;10.43;;
14754;SDS011;7469;50.906;6.952;2024-03-06T03:47:27;13.90;;;9.90;;
14754;SDS011;7469;50.906;6.952;2024-03-06T03:49:55;13.67;;;10.53;;
14754;SDS011;7469;50.906;6.952;2024-03-06T03:52:35;15.40;;;10.73;;
14754;SDS011;7469;50.906;6.952;2024-03-06T03:55:07;15.20;;;11.80;;
14754;SDS011;7469;50.906;6.952;2024-03-06T03:57:35;18.20;;;11.90;;
14754;SDS011;7469;50.906;6.952;2024-03-06T04:00:04;14.57;;;11.67;;
14754;SDS011;7469;50.906;6.952;2024-03-06T04:02:38;16.17;;;11.73;;
14754;SDS011;7469;50.906;6.952;2024-03-06T04:05:06;16.17;;;11.47;;
14754;SDS011;7469;50.906;6.952;2024-03-06T04:07:35;15.70;;;11.37;;
14754;SDS011;7469;50.906;6.952;2024-03-06T04:10:04;15.23;;;11.27;;
14754;SDS011;7469;50.906;6.952;2024-03-06T04:12:33;15.33;;;12.13;;
14754;SDS011;7469;50.906;6.952;2024-03-06T04:15:01;14.00;;;10.53;;
14754;SDS011;7469;50.906;6.952;2024-03-06T04:17:30;13.53;;;10.60;;
14754;SDS011;7469;50.906;6.952;2024-03-06T04:19:59;9.60;;;7.90;;
14754;SDS011;7469;50.906;6.952;2024-03-06T04:22:27;11.57;;;8.27;;
14754;SDS011;7469;50.906;6.952;2024-03-06T04:24:55;9.77;;;6.37;;
14754;SDS011;7469;50.906;6.952;2024-03-06T04:27:25;9.20;;;6.30;;
14754;SDS011;7469;50.906;6.952;2024-03-06T04:29:53;7.23;;;5.33;;
14754;SDS011;7469;50.906;6.952;2024-03-06T04:32:21;5.47;;;4.53;;
14754;SDS011;7469;50.906;6.952;2024-03-06T04:34:49;7.80;;;5.17;;
14754;SDS011;7469;50.906;6.952;2024-03-06T04:37:18;10.60;;;5.30;;
14754;SDS011;7469;50.906;6.952;2024-03-06T04:39:46;6.00;;;4.67;;
14754;SDS011;7469;50.906;6.952;2024-03-06T04:42:14;9.30;;;5.03;;
14754;SDS011;7469;50.906;6.952;2024-03-06T04:44:42;8.20;;;5.57;;
14754;SDS011;7469;50.906;6.952;2024-03-06T04:47:10;6.03;;;4.50;;
14754;SDS011;7469;50.906;6.952;2024-03-06T04:49:38;9.43;;;3.87;;
14754;SDS011;7469;50.906;6.952;2024-03-06T04:52:06;6.50;;;3.93;;
14754;SDS011;7469;50.906;6.952;2024-03-06T04:54:36;5.77;;;3.80;;
14754;SDS011;7469;50.906;6.952;2024-03-06T04:57:05;4.70;;;4.07;;
14754;SDS011;7469;50.906;6.952;2024-03-06T04:59:33;5.10;;;4.27;;
14754;SDS011;7469;50.906;6.952;2024-03-06T05:02:00;5.67;;;4.00;;
14754;SDS011;7469;50.906;6.952;2024-03-06T05:04:29;6.47;;;3.77;;
14754;SDS011;7469;50.906;6.952;2024-03-06T05:07:15;4.77;;;3.43;;
14754;SDS011;7469;50.906;6.952;2024-03-06T05:10:02;7.17;;;3.27;;
14754;SDS011;7469;50.906;6.952;2024-03-06T05:12:51;5.70;;;3.30;;
14754;SDS011;7469;50.906;6.952;2024-03-06T05:15:37;5.40;;;3.27;;
14754;SDS011;7469;50.906;6.952;2024-03-06T05:18:23;5.60;;;3.27;;
14754;SDS011;7469;50.906;6.952;2024-03-06T05:21:08;6.40;;;3.57;;
14754;SDS011;7469;50.906;6.952;2024-03-06T05:23:54;7.73;;;3.17;;
14754;SDS011;7469;50.906;6.952;2024-03-06T05:26:40;5.73;;;3.33;;
14754;SDS011;7469;50.906;6.952;2024-03-06T05:29:26;5.80;;;3.70;;
14754;SDS011;7469;50.906;6.952;2024-03-06T05:32:11;3.50;;;2.80;;
14754;SDS011;7469;50.906;6.952;2024-03-06T05:34:57;6.70;;;3.43;;
14754;SDS011;7469;50.906;6.952;2024-03-06T05:37:43;3.30;;;2.90;;
14754;SDS011;7469;50.906;6.952;2024-03-06T05:40:28;6.40;;;3.73;;
14754;SDS011;7469;50.906;6.952;2024-03-06T05:43:16;3.60;;;3.03;;
14754;SDS011;7469;50.906;6.952;2024-03-06T05:46:01;6.67;;;3.43;;
14754;SDS011;7469;50.906;6.952;2024-03-06T05:48:48;5.93;;;4.13;;
14754;SDS011;7469;50.906;6.952;2024-03-06T05:51:33;4.57;;;3.27;;
14754;SDS011;7469;50.906;6.952;2024-03-06T05:54:19;5.40;;;3.70;;
14754;SDS011;7469;50.906;6.952;2024-03-06T05:57:05;8.17;;;4.00;;
14754;SDS011;7469;50.906;6.952;2024-03-06T05:59:53;5.20;;;4.03;;
14754;SDS011;7469;50.906;6.952;2024-03-06T06:02:21;4.50;;;3.63;;
14754;SDS011;7469;50.906;6.952;2024-03-06T06:04:49;5.90;;;4.10;;
14754;SDS011;7469;50.906;6.952;2024-03-06T06:07:37;5.80;;;4.07;;
14754;SDS011;7469;50.906;6.952;2024-03-06T06:10:05;7.23;;;4.40;;
14754;SDS011;7469;50.906;6.952;2024-03-06T06:12:36;5.63;;;4.07;;
14754;SDS011;7469;50.906;6.952;2024-03-06T06:15:06;6.33;;;3.80;;
14754;SDS011;7469;50.906;6.952;2024-03-06T06:17:34;5.40;;;3.73;;
14754;SDS011;7469;50.906;6.952;2024-03-06T06:20:05;5.67;;;4.00;;
14754;SDS011;7469;50.906;6.952;2024-03-06T06:22:35;6.17;;;4.27;;
14754;SDS011;7469;50.906;6.952;2024-03-06T06:25:04;7.47;;;4.33;;
14754;SDS011;7469;50.906;6.952;2024-03-06T06:27:35;5.23;;;3.93;;
14754;SDS011;7469;50.906;6.952;2024-03-06T06:30:06;6.23;;;4.23;;
14754;SDS011;7469;50.906;6.952;2024-03-06T06:32:38;6.37;;;4.33;;
14754;SDS011;7469;50.906;6.952;2024-03-06T06:35:07;4.33;;;3.70;;
14754;SDS011;7469;50.906;6.952;2024-03-06T06:37:37;7.70;;;4.20;;
14754;SDS011;7469;50.906;6.952;2024-03-06T06:40:06;7.10;;;4.20;;
14754;SDS011;7469;50.906;6.952;2024-03-06T06:42:36;6.60;;;3.90;;
14754;SDS011;7469;50.906;6.952;2024-03-06T06:45:06;5.80;;;3.83;;
14754;SDS011;7469;50.906;6.952;2024-03-06T06:47:35;6.17;;;4.00;;
14754;SDS011;7469;50.906;6.952;2024-03-06T06:50:06;5.60;;;4.13;;
14754;SDS011;7469;50.906;6.952;2024-03-06T06:52:35;4.77;;;3.87;;
14754;SDS011;7469;50.906;6.952;2024-03-06T06:55:04;6.73;;;4.20;;
14754;SDS011;7469;50.906;6.952;2024-03-06T06:57:35;6.97;;;4.17;;
14754;SDS011;7469;50.906;6.952;2024-03-06T07:00:03;5.57;;;3.97;;
14754;SDS011;7469;50.906;6.952;2024-03-06T07:02:38;7.67;;;3.63;;
14754;SDS011;7469;50.906;6.952;2024-03-06T07:05:07;6.90;;;4.10;;
14754;SDS011;7469;50.906;6.952;2024-03-06T07:07:36;6.60;;;3.27;;
14754;SDS011;7469;50.906;6.952;2024-03-06T07:10:05;4.40;;;3.70;;
14754;SDS011;7469;50.906;6.952;2024-03-06T07:12:35;7.07;;;4.07;;
14754;SDS011;7469;50.906;6.952;2024-03-06T07:15:03;5.03;;;3.53;;
14754;SDS011;7469;50.906;6.952;2024-03-06T07:17:32;4.83;;;3.77;;
14754;SDS011;7469;50.906;6.952;2024-03-06T07:20:02;4.40;;;4.00;;
14754;SDS011;7469;50.906;6.952;2024-03-06T07:22:31;6.80;;;3.80;;
14754;SDS011;7469;50.906;6.952;2024-03-06T07:25:00;5.83;;;3.90;;
14754;SDS011;7469;50.906;6.952;2024-03-06T07:27:28;5.53;;;4.03;;
14754;SDS011;7469;50.906;6.952;2024-03-06T07:29:56;6.47;;;3.57;;
14754;SDS011;7469;50.906;6.952;2024-03-06T07:32:24;6.40;;;4.30;;
14754;SDS011;7469;50.906;6.952;2024-03-06T07:34:52;7.80;;;3.80;;
14754;SDS011;7469;50.906;6.952;2024-03-06T07:37:21;8.37;;;4.20;;
14754;SDS011;7469;50.906;6.952;2024-03-06T07:39:49;5.50;;;4.00;;
14754;SDS011;7469;50.906;6.952;2024-03-06T07:42:19;7.30;;;4.40;;
14754;SDS011;7469;50.906;6.952;2024-03-06T07:44:47;6.33;;;3.97;;
14754;SDS011;7469;50.906;6.952;2024-03-06T07:47:16;6.07;;;4.20;;
14754;SDS011;7469;50.906;6.952;2024-03-06T07:49:44;6.57;;;4.60;;
14754;SDS011;7469;50.906;6.952;2024-03-06T07:52:13;6.97;;;4.13;;
14754;SDS011;7469;50.906;6.952;2024-03-06T07:54:42;7.93;;;4.23;;
14754;SDS011;7469;50.906;6.952;2024-03-06T07:57:10;9.20;;;4.37;;
14754;SDS011;7469;50.906;6.952;2024-03-06T07:59:38;8.23;;;4.03;;
14754;SDS011;7469;50.906;6.952;2024-03-06T08:02:06;6.37;;;3.80;;
14754;SDS011;7469;50.906;6.952;2024-03-06T08:04:35;6.77;;;4.43;;
14754;SDS011;7469;50.906;6.952;2024-03-06T08:07:03;9.23;;;5.83;;
14754;SDS011;7469;50.906;6.952;2024-03-06T08:09:31;7.17;;;5.00;;
14754;SDS011;7469;50.906;6.952;2024-03-06T08:12:00;15.30;;;5.60;;
14754;SDS011;7469;50.906;6.952;2024-03-06T08:14:28;8.07;;;5.90;;
14754;SDS011;7469;50.906;6.952;2024-03-06T08:16:56;10.20;;;6.70;;
14754;SDS011;7469;50.906;6.952;2024-03-06T08:19:25;10.77;;;6.90;;
14754;SDS011;7469;50.906;6.952;2024-03-06T08:21:53;9.77;;;7.30;;
14754;SDS011;7469;50.906;6.952;2024-03-06T08:24:21;12.00;;;8.40;;
14754;SDS011;7469;50.906;6.952;2024-03-06T08:26:49;10.87;;;7.90;;
14754;SDS011;7469;50.906;6.952;2024-03-06T08:29:18;11.73;;;8.13;;
14754;SDS011;7469;50.906;6.952;2024-03-06T08:31:46;11.37;;;7.97;;
14754;SDS011;7469;50.906;6.952;2024-03-06T08:34:14;10.90;;;7.40;;
14754;SDS011;7469;50.906;6.952;2024-03-06T08:36:44;13.43;;;8.87;;
14754;SDS011;7469;50.906;6.952;2024-03-06T08:39:12;12.47;;;8.77;;
14754;SDS011;7469;50.906;6.952;2024-03-06T08:41:42;10.53;;;8.77;;
14754;SDS011;7469;50.906;6.952;2024-03-06T08:44:10;9.67;;;7.73;;
14754;SDS011;7469;50.906;6.952;2024-03-06T08:46:39;12.43;;;7.83;;
14754;SDS011;7469;50.906;6.952;2024-03-06T08:49:08;9.53;;;7.63;;
14754;SDS011;7469;50.906;6.952;2024-03-06T08:51:37;11.93;;;8.03;;
14754;SDS011;7469;50.906;6.952;2024-03-06T08:54:06;11.30;;;7.43;;
14754;SDS011;7469;50.906;6.952;2024-03-06T08:56:39;10.00;;;6.97;;
14754;SDS011;7469;50.906;6.952;2024-03-06T08:59:10;11.77;;;6.90;;
14754;SDS011;7469;50.906;6.952;2024-03-06T09:01:39;12.00;;;7.00;;
14754;SDS011;7469;50.906;6.952;2024-03-06T09:04:07;7.43;;;6.07;;
14754;SDS011;7469;50.906;6.952;2024-03-06T09:06:35;8.03;;;5.63;;
14754;SDS011;7469;50.906;6.952;2024-03-06T09:09:03;7.67;;;5.70;;
14754;SDS011;7469;50.906;6.952;2024-03-06T09:11:32;7.37;;;5.70;;
14754;SDS011;7469;50.906;6.952;2024-03-06T09:14:00;7.80;;;5.20;;
14754;SDS011;7469;50.906;6.952;2024-03-06T09:16:30;6.90;;;5.33;;
14754;SDS011;7469;50.906;6.952;2024-03-06T09:18:59;7.10;;;5.23;;
14754;SDS011;7469;50.906;6.952;2024-03-06T09:21:28;9.17;;;5.20;;
14754;SDS011;7469;50.906;6.952;2024-03-06T09:23:56;7.10;;;5.03;;
14754;SDS011;7469;50.906;6.952;2024-03-06T09:26:24;7.53;;;5.20;;
14754;SDS011;7469;50.906;6.952;2024-03-06T09:28:52;6.00;;;4.70;;
14754;SDS011;7469;50.906;6.952;2024-03-06T09:31:19;6.50;;;5.43;;
14754;SDS011;7469;50.906;6.952;2024-03-06T09:33:47;7.70;;;4.80;;
14754;SDS011;7469;50.906;6.952;2024-03-06T09:36:17;12.50;;;5.47;;
14754;SDS011;7469;50.906;6.952;2024-03-06T09:38:45;6.47;;;4.43;;
14754;SDS011;7469;50.906;6.952;2024-03-06T09:41:13;7.70;;;4.93;;
14754;SDS011;7469;50.906;6.952;2024-03-06T09:43:41;9.97;;;4.73;;
14754;SDS011;7469;50.906;6.952;2024-03-06T09:46:11;6.57;;;4.20;;
14754;SDS011;7469;50.906;6.952;2024-03-06T09:48:41;8.40;;;4.93;;
14754;SDS011;7469;50.906;6.952;2024-03-06T09:51:13;8.53;;;4.60;;
14754;SDS011;7469;50.906;6.952;2024-03-06T09:53:43;5.80;;;4.50;;
14754;SDS011;7469;50.906;6.952;2024-03-06T09:56:11;6.47;;;4.53;;
14754;SDS011;7469;50.906;6.952;2024-03-06T09:58:39;6.90;;;4.33;;
14754;SDS011;7469;50.906;6.952;2024-03-06T10:01:08;8.13;;;4.47;;
14754;SDS011;7469;50.906;6.952;2024-03-06T10:03:38;6.87;;;4.67;;
14754;SDS011;7469;50.906;6.952;2024-03-06T10:06:07;7.57;;;4.97;;
14754;SDS011;7469;50.906;6.952;2024-03-06T10:08:42;8.37;;;5.30;;
14754;SDS011;7469;50.906;6.952;2024-03-06T10:11:12;11.00;;;5.80;;
14754;SDS011;7469;50.906;6.952;2024-03-06T10:13:40;6.07;;;5.20;;
14754;SDS011;7469;50.906;6.952;2024-03-06T10:16:08;8.93;;;5.13;;
14754;SDS011;7469;50.906;6.952;2024-03-06T10:18:37;8.10;;;5.17;;
14754;SDS011;7469;50.906;6.952;2024-03-06T10:21:06;7.07;;;5.73;;
14754;SDS011;7469;50.906;6.952;2024-03-06T10:23:34;12.63;;;5.87;;
14754;SDS011;7469;50.906;6.952;2024-03-06T10:26:05;9.47;;;5.53;;
14754;SDS011;7469;50.906;6.952;2024-03-06T10:28:35;7.63;;;5.13;;
14754;SDS011;7469;50.906;6.952;2024-03-06T10:31:04;7.80;;;5.77;;
14754;SDS011;7469;50.906;6.952;2024-03-06T10:33:34;8.60;;;6.47;;
14754;SDS011;7469;50.906;6.952;2024-03-06T10:36:04;8.93;;;6.00;;
14754;SDS011;7469;50.906;6.952;2024-03-06T10:38:33;10.13;;;6.47;;
14754;SDS011;7469;50.906;6.952;2024-03-06T10:41:08;8.73;;;6.00;;
14754;SDS011;7469;50.906;6.952;2024-03-06T10:43:41;13.43;;;9.67;;
14754;SDS011;7469;50.906;6.952;2024-03-06T10:46:11;9.33;;;7.40;;
14754;SDS011;7469;50.906;6.952;2024-03-06T10:48:40;9.90;;;7.70;;
14754;SDS011;7469;50.906;6.952;2024-03-06T10:51:10;12.03;;;8.70;;
14754;SDS011;7469;50.906;6.952;2024-03-06T10:53:42;10.77;;;8.40;;
14754;SDS011;7469;50.906;6.952;2024-03-06T10:56:13;10.57;;;8.40;;
14754;SDS011;7469;50.906;6.952;2024-03-06T10:58:45;12.50;;;10.20;;
14754;SDS011;7469;50.906;6.952;2024-03-06T11:01:17;13.60;;;10.13;;
14754;SDS011;7469;50.906;6.952;2024-03-06T11:03:46;12.10;;;10.10;;
14754;SDS011;7469;50.906;6.952;2024-03-06T11:06:16;14.00;;;11.67;;
14754;SDS011;7469;50.906;6.952;2024-03-06T11:08:44;15.33;;;11.27;;
14754;SDS011;7469;50.906;6.952;2024-03-06T11:11:22;13.43;;;10.17;;
14754;SDS011;7469;50.906;6.952;2024-03-06T11:13:54;13.80;;;10.77;;
14754;SDS011;7469;50.906;6.952;2024-03-06T11:16:27;11.70;;;9.67;;
14754;SDS011;7469;50.906;6.952;2024-03-06T11:19:04;12.87;;;9.93;;
14754;SDS011;7469;50.906;6.952;2024-03-06T11:21:33;13.80;;;11.30;;
14754;SDS011;7469;50.906;6.952;2024-03-06T11:24:14;12.70;;;11.20;;
14754;SDS011;7469;50.906;6.952;2024-03-06T11:26:48;15.13;;;11.23;;
14754;SDS011;7469;50.906;6.952;2024-03-06T11:29:17;12.60;;;10.43;;
14754;SDS011;7469;50.906;6.952;2024-03-06T11:34:35;10.77;;;8.57;;
14754;SDS011;7469;50.906;6.952;2024-03-06T11:37:05;11.93;;;9.33;;
14754;SDS011;7469;50.906;6.952;2024-03-06T11:39:36;11.07;;;9.67;;
14754;SDS011;7469;50.906;6.952;2024-03-06T11:42:06;10.97;;;9.50;;
14754;SDS011;7469;50.906;6.952;2024-03-06T11:44:35;13.23;;;10.33;;
14754;SDS011;7469;50.906;6.952;2024-03-06T11:47:05;11.37;;;9.50;;
14754;SDS011;7469;50.906;6.952;2024-03-06T11:49:35;11.80;;;9.97;;
14754;SDS011;7469;50.906;6.952;2024-03-06T11:52:05;11.70;;;9.53;;
14754;SDS011;7469;50.906;6.952;2024-03-06T11:54:35;10.83;;;9.63;;
14754;SDS011;7469;50.906;6.952;2024-03-06T11:57:04;13.23;;;9.20;;
14754;SDS011;7469;50.906;6.952;2024-03-06T11:59:34;12.40;;;9.20;;
14754;SDS011;7469;50.906;6.952;2024-03-06T12:02:05;11.80;;;9.10;;
14754;SDS011;7469;50.906;6.952;2024-03-06T12:04:34;11.33;;;9.10;;
14754;SDS011;7469;50.906;6.952;2024-03-06T12:07:04;13.20;;;9.47;;
14754;SDS011;7469;50.906;6.952;2024-03-06T12:09:33;12.47;;;9.00;;
14754;SDS011;7469;50.906;6.952;2024-03-06T12:12:08;11.70;;;9.37;;
14754;SDS011;7469;50.906;6.952;2024-03-06T12:14:38;11.97;;;9.80;;
14754;SDS011;7469;50.906;6.952;2024-03-06T12:17:11;14.80;;;10.83;;
14754;SDS011;7469;50.906;6.952;2024-03-06T12:19:43;13.93;;;12.13;;
14754;SDS011;7469;50.906;6.952;2024-03-06T12:22:12;16.07;;;12.40;;
14754;SDS011;7469;50.906;6.952;2024-03-06T12:24:41;14.40;;;11.67;;
14754;SDS011;7469;50.906;6.952;2024-03-06T12:27:09;11.90;;;10.13;;
14754;SDS011;7469;50.906;6.952;2024-03-06T12:29:40;14.80;;;10.03;;
14754;SDS011;7469;50.906;6.952;2024-03-06T12:32:19;14.20;;;11.07;;
14754;SDS011;7469;50.906;6.952;2024-03-06T12:34:56;15.10;;;11.93;;
14754;SDS011;7469;50.906;6.952;2024-03-06T12:37:29;12.00;;;9.57;;
14754;SDS011;7469;50.906;6.952;2024-03-06T12:39:58;15.60;;;12.00;;
14754;SDS011;7469;50.906;6.952;2024-03-06T12:42:28;13.77;;;11.23;;
14754;SDS011;7469;50.906;6.952;2024-03-06T12:44:57;13.60;;;9.80;;
14754;SDS011;7469;50.906;6.952;2024-03-06T12:47:25;14.90;;;9.47;;
14754;SDS011;7469;50.906;6.952;2024-03-06T12:49:54;13.73;;;8.70;;
14754;SDS011;7469;50.906;6.952;2024-03-06T12:52:21;9.90;;;7.43;;
14754;SDS011;7469;50.906;6.952;2024-03-06T12:54:49;12.23;;;8.00;;
14754;SDS011;7469;50.906;6.952;2024-03-06T12:57:17;10.10;;;8.77;;
14754;SDS011;7469;50.906;6.952;2024-03-06T12:59:45;11.30;;;7.80;;
14754;SDS011;7469;50.906;6.952;2024-03-06T13:02:15;12.83;;;7.53;;
14754;SDS011;7469;50.906;6.952;2024-03-06T13:04:43;10.93;;;8.30;;
14754;SDS011;7469;50.906;6.952;2024-03-06T13:07:11;8.17;;;7.27;;
14754;SDS011;7469;50.906;6.952;2024-03-06T13:09:40;9.60;;;7.83;;
14754;SDS011;7469;50.906;6.952;2024-03-06T13:12:08;11.07;;;7.23;;
14754;SDS011;7469;50.906;6.952;2024-03-06T13:14:36;11.30;;;8.37;;
14754;SDS011;7469;50.906;6.952;2024-03-06T13:17:04;9.70;;;7.93;;
14754;SDS011;7469;50.906;6.952;2024-03-06T13:19:35;8.17;;;7.00;;
14754;SDS011;7469;50.906;6.952;2024-03-06T13:22:03;9.80;;;7.10;;
14754;SDS011;7469;50.906;6.952;2024-03-06T13:24:33;7.53;;;6.23;;
14754;SDS011;7469;50.906;6.952;2024-03-06T13:27:03;8.23;;;7.10;;
14754;SDS011;7469;50.906;6.952;2024-03-06T13:29:31;7.67;;;5.97;;
14754;SDS011;7469;50.906;6.952;2024-03-06T13:31:59;7.87;;;6.40;;
14754;SDS011;7469;50.906;6.952;2024-03-06T13:34:27;8.37;;;5.57;;
14754;SDS011;7469;50.906;6.952;2024-03-06T13:36:58;7.13;;;4.87;;
14754;SDS011;7469;50.906;6.952;2024-03-06T13:39:26;7.53;;;4.80;;
14754;SDS011;7469;50.906;6.952;2024-03-06T13:41:54;5.00;;;4.40;;
14754;SDS011;7469;50.906;6.952;2024-03-06T13:44:22;5.13;;;4.30;;
14754;SDS011;7469;50.906;6.952;2024-03-06T13:46:50;6.93;;;3.93;;
14754;SDS011;7469;50.906;6.952;2024-03-06T13:49:34;6.67;;;4.60;;
14754;SDS011;7469;50.906;6.952;2024-03-06T13:52:05;5.33;;;4.50;;
14754;SDS011;7469;50.906;6.952;2024-03-06T13:54:37;5.87;;;4.20;;
14754;SDS011;7469;50.906;6.952;2024-03-06T13:57:06;5.37;;;4.53;;
14754;SDS011;7469;50.906;6.952;2024-03-06T13:59:34;5.20;;;4.60;;
14754;SDS011;7469;50.906;6.952;2024-03-06T14:02:04;6.13;;;4.83;;
14754;SDS011;7469;50.906;6.952;2024-03-06T14:04:32;6.67;;;4.70;;
14754;SDS011;7469;50.906;6.952;2024-03-06T14:07:01;7.73;;;4.93;;
14754;SDS011;7469;50.906;6.952;2024-03-06T14:09:30;5.33;;;4.23;;
14754;SDS011;7469;50.906;6.952;2024-03-06T14:11:58;5.03;;;4.50;;
14754;SDS011;7469;50.906;6.952;2024-03-06T14:14:27;6.10;;;4.67;;
14754;SDS011;7469;50.906;6.952;2024-03-06T14:16:55;5.50;;;4.47;;
14754;SDS011;7469;50.906;6.952;2024-03-06T14:19:23;5.70;;;4.10;;
14754;SDS011;7469;50.906;6.952;2024-03-06T14:21:51;4.10;;;3.70;;
14754;SDS011;7469;50.906;6.952;2024-03-06T14:24:19;6.97;;;3.93;;
14754;SDS011;7469;50.906;6.952;2024-03-06T14:26:48;4.33;;;3.40;;
14754;SDS011;7469;50.906;6.952;2024-03-06T14:29:16;6.37;;;4.47;;
14754;SDS011;7469;50.906;6.952;2024-03-06T14:31:44;4.90;;;3.77;;
14754;SDS011;7469;50.906;6.952;2024-03-06T14:34:12;5.43;;;3.20;;
14754;SDS011;7469;50.906;6.952;2024-03-06T14:36:41;4.20;;;3.40;;
14754;SDS011;7469;50.906;6.952;2024-03-06T14:39:09;4.37;;;3.30;;
14754;SDS011;7469;50.906;6.952;2024-03-06T14:41:37;4.13;;;3.10;;
14754;SDS011;7469;50.906;6.952;2024-03-06T14:44:07;5.27;;;3.33;;
14754;SDS011;7469;50.906;6.952;2024-03-06T14:46:35;3.80;;;3.23;;
14754;SDS011;7469;50.906;6.952;2024-03-06T14:49:02;3.93;;;3.23;;
14754;SDS011;7469;50.906;6.952;2024-03-06T14:51:31;3.60;;;3.20;;
14754;SDS011;7469;50.906;6.952;2024-03-06T14:53:59;4.07;;;2.73;;
14754;SDS011;7469;50.906;6.952;2024-03-06T14:56:27;3.80;;;3.10;;
14754;SDS011;7469;50.906;6.952;2024-03-06T14:58:56;3.90;;;3.17;;
14754;SDS011;7469;50.906;6.952;2024-03-06T15:01:26;4.67;;;3.03;;
14754;SDS011;7469;50.906;6.952;2024-03-06T15:03:54;3.60;;;2.43;;
14754;SDS011;7469;50.906;6.952;2024-03-06T15:06:22;7.93;;;6.10;;
14754;SDS011;7469;50.906;6.952;2024-03-06T15:08:50;3.83;;;2.60;;
14754;SDS011;7469;50.906;6.952;2024-03-06T15:11:18;3.33;;;2.67;;